Time;durP1;ratioP1;P1;durP2;ratioP2;P2;SDS_P1;SDS_P2;PMS_P1;PMS_P2;Temp;Humidity;BMP_temperature;BMP_pressure;BME280_temperature;BME280_humidity;BME280_pressure;Samples;Min_cycle;Max_cycle;Signal;HPM_P1;HPM_P2
2021/06/25 00:02:08;;;;;;;0.40;0.40;;;;;;;13.27;67.26;100764.41;6140465;23;20053;-77
2021/06/25 00:04:33;;;;;;;2.38;0.45;;;;;;;13.23;67.39;100750.44;6087328;23;20041;-75
2021/06/25 00:06:59;;;;;;;0.57;0.50;;;;;;;13.22;66.91;100739.72;6108059;23;20010;-77
2021/06/25 00:09:25;;;;;;;0.40;0.40;;;;;;;13.28;67.04;100755.91;6085175;23;20013;-76
2021/06/25 00:11:50;;;;;;;0.75;0.50;;;;;;;13.28;66.64;100753.16;6081844;23;20018;-75
2021/06/25 00:14:21;;;;;;;0.50;0.50;;;;;;;13.23;66.71;100749.63;6134744;23;20377;-76
2021/06/25 00:16:48;;;;;;;2.75;0.85;;;;;;;13.28;66.94;100749.59;6138362;23;20023;-76
2021/06/25 00:19:13;;;;;;;0.50;0.50;;;;;;;13.30;66.67;100758.38;6138693;23;20013;-77
2021/06/25 00:21:39;;;;;;;1.23;0.57;;;;;;;13.25;66.17;100739.97;6115167;23;20010;-76
2021/06/25 00:24:05;;;;;;;0.50;0.50;;;;;;;13.30;66.00;100738.34;6113043;23;20078;-76
2021/06/25 00:26:31;;;;;;;0.60;0.50;;;;;;;13.36;66.41;100740.84;6137817;23;20042;-77
2021/06/25 00:28:56;;;;;;;2.75;0.65;;;;;;;13.41;65.84;100726.28;6133964;23;20037;-77
2021/06/25 00:31:22;;;;;;;0.60;0.45;;;;;;;13.40;66.29;100714.47;6112492;23;20010;-75
2021/06/25 00:33:48;;;;;;;0.90;0.50;;;;;;;13.42;66.05;100716.94;6086299;23;20013;-76
2021/06/25 00:36:14;;;;;;;0.52;0.52;;;;;;;13.50;66.08;100723.78;6136527;23;20425;-77
2021/06/25 00:38:39;;;;;;;2.15;0.70;;;;;;;13.50;66.11;100715.53;6113007;23;20084;-77
2021/06/25 00:41:05;;;;;;;1.58;0.50;;;;;;;13.45;66.44;100702.63;6087967;23;20031;-77
2021/06/25 00:43:34;;;;;;;0.50;0.50;;;;;;;13.49;67.15;100711.13;6111513;23;20006;-75
2021/06/25 00:46:00;;;;;;;1.23;0.70;;;;;;;13.51;67.25;100708.94;6084136;23;20018;-73
2021/06/25 00:48:25;;;;;;;0.73;0.50;;;;;;;13.43;67.42;100702.91;6105413;23;20020;-73
2021/06/25 00:50:51;;;;;;;1.23;0.60;;;;;;;13.55;66.98;100713.59;6133975;23;20010;-74
2021/06/25 00:53:17;;;;;;;0.57;0.57;;;;;;;13.56;67.61;100728.16;6110489;23;20072;-73
2021/06/25 00:55:43;;;;;;;0.70;0.57;;;;;;;13.55;67.18;100716.34;6110372;23;20021;-75
2021/06/25 00:58:16;;;;;;;1.30;0.40;;;;;;;13.54;67.94;100720.19;6112134;23;20006;-74
2021/06/25 01:00:43;;;;;;;0.65;0.30;;;;;;;13.49;67.66;100705.63;6138975;23;20029;-76
2021/06/25 01:03:10;;;;;;;0.90;0.47;;;;;;;13.40;68.06;100692.50;6137074;23;20025;-74
2021/06/25 01:05:36;;;;;;;1.75;0.30;;;;;;;13.53;67.38;100709.47;6137258;23;20002;-75
2021/06/25 01:08:02;;;;;;;0.50;0.50;;;;;;;13.55;67.03;100715.50;6137321;23;20006;-77
2021/06/25 01:10:28;;;;;;;0.55;0.55;;;;;;;13.57;67.24;100707.81;6135035;23;20033;-77
2021/06/25 01:12:54;;;;;;;1.15;0.60;;;;;;;13.52;67.12;100707.81;6134916;23;20037;-77
2021/06/25 01:15:20;;;;;;;0.63;0.63;;;;;;;13.57;67.03;100708.63;6134700;23;20014;-75
2021/06/25 01:17:46;;;;;;;1.88;0.55;;;;;;;13.59;66.71;100698.22;6133627;23;20033;-75
2021/06/25 01:20:18;;;;;;;2.75;0.55;;;;;;;13.59;67.10;100683.63;6136721;23;20032;-77
2021/06/25 01:22:43;;;;;;;5.10;0.50;;;;;;;13.60;67.32;100679.78;6134632;23;19998;-75
2021/06/25 01:25:19;;;;;;;0.30;0.30;;;;;;;13.63;67.25;100678.41;6136727;23;20081;-77
2021/06/25 01:27:56;;;;;;;0.55;0.55;;;;;;;13.64;66.96;100680.88;6102830;23;20010;-76
2021/06/25 01:30:40;;;;;;;0.90;0.57;;;;;;;13.62;66.37;100666.56;6129554;23;20017;-74
2021/06/25 01:33:11;;;;;;;0.50;0.50;;;;;;;13.68;66.17;100676.47;6122332;23;20083;-76
2021/06/25 01:35:37;;;;;;;0.90;0.63;;;;;;;13.69;66.82;100667.09;6104540;23;20013;-75
2021/06/25 01:38:05;;;;;;;2.95;0.65;;;;;;;13.68;66.69;100668.22;6131050;23;20013;-77
2021/06/25 01:40:31;;;;;;;2.92;0.60;;;;;;;13.74;66.96;100663.50;6105681;23;20030;-76
2021/06/25 01:42:59;;;;;;;3.28;0.70;;;;;;;13.72;66.64;100655.53;6102635;23;20014;-77
2021/06/25 01:45:28;;;;;;;0.82;0.80;;;;;;;13.76;66.52;100655.81;6133019;23;20006;-76
2021/06/25 01:47:53;;;;;;;0.70;0.70;;;;;;;13.80;66.75;100656.91;6131795;23;20046;-77
2021/06/25 01:50:23;;;;;;;0.50;0.40;;;;;;;13.82;66.67;100653.88;6133257;23;20010;-76
2021/06/25 01:52:58;;;;;;;0.50;0.50;;;;;;;13.89;66.04;100651.63;6106982;23;20037;-72
2021/06/25 01:55:25;;;;;;;0.50;0.50;;;;;;;13.95;66.39;100653.25;6134204;23;20043;-72
2021/06/25 01:57:50;;;;;;;0.50;0.50;;;;;;;13.99;65.94;100659.00;6131533;23;20093;-73
2021/06/25 02:00:16;;;;;;;0.60;0.60;;;;;;;14.00;66.30;100644.97;6130725;23;20006;-73
2021/06/25 02:02:42;;;;;;;0.40;0.40;;;;;;;14.07;66.35;100639.97;6105303;23;20017;-74
2021/06/25 02:05:10;;;;;;;0.50;0.50;;;;;;;14.08;66.67;100640.81;6129694;23;20009;-72
2021/06/25 02:07:36;;;;;;;1.25;0.68;;;;;;;14.09;66.22;100634.19;6128999;23;20013;-72
2021/06/25 02:10:04;;;;;;;3.50;0.80;;;;;;;14.08;66.65;100636.13;6127758;23;20016;-74
2021/06/25 02:12:29;;;;;;;0.70;0.43;;;;;;;14.11;66.11;100623.75;6124838;23;20756;-74
2021/06/25 02:14:55;;;;;;;0.30;0.30;;;;;;;14.11;66.59;100619.06;6102644;23;20022;-73
2021/06/25 02:17:21;;;;;;;1.15;0.60;;;;;;;14.13;66.60;100627.84;6128451;23;20033;-74
2021/06/25 02:19:46;;;;;;;0.40;0.40;;;;;;;14.08;66.48;100625.13;6129112;23;20076;-72
2021/06/25 02:22:13;;;;;;;0.13;0.13;;;;;;;14.19;66.90;100628.63;6129038;23;20028;-73
2021/06/25 02:24:39;;;;;;;0.65;0.65;;;;;;;14.23;66.28;100637.13;6104427;23;20013;-73
2021/06/25 02:27:06;;;;;;;0.93;0.93;;;;;;;14.22;66.88;100624.47;6126068;23;20025;-73
2021/06/25 02:29:32;;;;;;;0.52;0.52;;;;;;;14.28;66.48;100628.84;6093090;23;20345;-72
2021/06/25 02:31:58;;;;;;;0.98;0.98;;;;;;;14.30;67.29;100623.88;6102331;23;20045;-74
2021/06/25 02:34:23;;;;;;;0.90;0.90;;;;;;;14.30;67.19;100612.88;6129453;23;20013;-73
2021/06/25 02:36:49;;;;;;;1.75;1.45;;;;;;;14.29;68.01;100603.81;6124899;23;20468;-74
2021/06/25 02:39:14;;;;;;;1.77;1.00;;;;;;;14.28;68.11;100602.16;6127685;23;20005;-74
2021/06/25 02:41:41;;;;;;;1.13;0.98;;;;;;;14.29;68.47;100600.22;6127084;23;20006;-74
2021/06/25 02:44:07;;;;;;;0.95;0.95;;;;;;;14.30;67.80;100599.94;6133675;23;20010;-74
2021/06/25 02:46:32;;;;;;;0.65;0.65;;;;;;;14.31;68.34;100600.78;6133036;23;20005;-75
2021/06/25 02:48:58;;;;;;;0.88;0.88;;;;;;;14.30;68.44;100593.63;6084011;23;20144;-73
2021/06/25 02:51:23;;;;;;;0.57;0.57;;;;;;;14.31;68.08;100595.28;6131597;23;20006;-74
2021/06/25 02:53:49;;;;;;;0.70;0.52;;;;;;;14.31;68.01;100595.28;6132914;23;20084;-73
2021/06/25 02:56:14;;;;;;;0.47;0.47;;;;;;;14.36;68.36;100595.22;6130605;23;20006;-73
2021/06/25 02:58:40;;;;;;;0.30;0.30;;;;;;;14.43;67.97;100603.16;6128823;23;20016;-73
2021/06/25 03:01:05;;;;;;;0.20;0.20;;;;;;;14.47;68.37;100594.03;6122559;23;20009;-73
2021/06/25 03:03:31;;;;;;;0.30;0.30;;;;;;;14.53;68.18;100591.22;6126021;23;20307;-72
2021/06/25 03:05:56;;;;;;;0.22;0.22;;;;;;;14.58;67.78;100588.44;6127253;23;20022;-72
2021/06/25 03:08:22;;;;;;;0.45;0.20;;;;;;;14.61;67.91;100580.44;6125313;23;20014;-73
2021/06/25 03:10:50;;;;;;;0.20;0.20;;;;;;;14.64;67.54;100579.88;6125572;23;20025;-72
2021/06/25 03:13:19;;;;;;;0.20;0.20;;;;;;;14.71;67.91;100581.47;6131013;23;20481;-73
2021/06/25 03:15:45;;;;;;;1.92;1.33;;;;;;;14.73;68.02;100580.06;6129439;23;20298;-73
2021/06/25 03:18:13;;;;;;;1.92;1.83;;;;;;;14.74;69.20;100576.19;6107145;23;20010;-74
2021/06/25 03:20:39;;;;;;;5.63;2.25;;;;;;;14.73;70.01;100563.53;6134165;23;20010;-72
2021/06/25 03:23:05;;;;;;;2.55;2.38;;;;;;;14.68;70.27;100560.06;6130885;23;20006;-74
2021/06/25 03:25:32;;;;;;;3.00;2.90;;;;;;;14.65;71.45;100561.44;6129952;23;20104;-72
2021/06/25 03:27:57;;;;;;;7.50;2.47;;;;;;;14.61;72.40;100560.34;6130627;23;20500;-72
2021/06/25 03:30:23;;;;;;;3.08;2.78;;;;;;;14.64;72.13;100562.53;6133772;23;20001;-71
2021/06/25 03:32:49;;;;;;;3.28;3.08;;;;;;;14.66;73.29;100568.59;6132352;23;20455;-72
2021/06/25 03:35:14;;;;;;;4.97;3.05;;;;;;;14.69;73.86;100565.25;6108306;23;20010;-72
2021/06/25 03:37:40;;;;;;;2.88;2.67;;;;;;;14.72;73.05;100556.41;6130332;23;20424;-73
2021/06/25 03:40:13;;;;;;;3.88;3.58;;;;;;;14.77;73.98;100559.09;6108583;23;20021;-71
2021/06/25 03:42:39;;;;;;;3.80;3.50;;;;;;;14.73;74.10;100546.22;6106416;23;20002;-73
2021/06/25 03:45:07;;;;;;;3.70;3.47;;;;;;;14.80;74.55;100558.50;6082563;23;20070;-72
2021/06/25 03:47:32;;;;;;;3.40;3.17;;;;;;;14.80;74.85;100553.00;6130179;23;20002;-72
2021/06/25 03:49:58;;;;;;;4.38;4.07;;;;;;;14.82;75.78;100549.97;6102684;23;20013;-71
2021/06/25 03:52:23;;;;;;;4.07;3.42;;;;;;;14.83;75.37;100551.63;6133965;23;20014;-72
2021/06/25 03:54:49;;;;;;;4.47;3.72;;;;;;;14.80;76.38;100557.72;6131494;23;20094;-71
2021/06/25 03:57:14;;;;;;;6.97;4.35;;;;;;;14.80;76.91;100550.25;6131028;23;20093;-72
2021/06/25 03:59:39;;;;;;;4.10;3.80;;;;;;;14.84;77.24;100540.31;6107235;23;20429;-72
2021/06/25 04:02:11;;;;;;;4.05;3.75;;;;;;;14.90;77.21;100545.78;6098943;23;20404;-73
2021/06/25 04:04:37;;;;;;;6.28;4.20;;;;;;;14.92;77.14;100543.53;6103626;23;20349;-71
2021/06/25 04:07:04;;;;;;;4.63;3.50;;;;;;;14.99;77.33;100538.50;6124235;23;20006;-72
2021/06/25 04:09:30;;;;;;;5.05;3.85;;;;;;;15.03;77.04;100534.06;6130410;23;20012;-73
2021/06/25 04:11:56;;;;;;;3.97;3.67;;;;;;;15.06;77.37;100543.66;6124989;23;20052;-74
2021/06/25 04:14:22;;;;;;;6.45;3.30;;;;;;;15.06;77.39;100538.97;6129652;23;20014;-74
2021/06/25 04:16:47;;;;;;;3.25;3.05;;;;;;;15.11;76.98;100541.69;6102718;23;20014;-73
2021/06/25 04:19:13;;;;;;;3.30;3.10;;;;;;;15.10;77.36;100537.28;6131721;23;20086;-74
2021/06/25 04:21:40;;;;;;;4.40;4.00;;;;;;;15.10;77.76;100531.78;6133704;23;20759;-73
2021/06/25 04:24:06;;;;;;;4.30;3.22;;;;;;;15.11;77.57;100541.69;6126866;23;20168;-74
2021/06/25 04:26:32;;;;;;;3.25;3.05;;;;;;;15.08;77.28;100536.72;6133785;23;20002;-74
2021/06/25 04:28:58;;;;;;;3.28;3.08;;;;;;;15.14;77.56;100529.22;6131015;23;20033;-73
2021/06/25 04:31:23;;;;;;;3.75;3.55;;;;;;;15.14;77.91;100530.06;6081262;23;20014;-74
2021/06/25 04:33:49;;;;;;;3.13;2.90;;;;;;;15.18;77.53;100519.28;6106417;23;20101;-75
2021/06/25 04:36:14;;;;;;;2.28;2.17;;;;;;;15.21;77.45;100526.13;6101804;23;20068;-73
2021/06/25 04:38:40;;;;;;;3.10;2.38;;;;;;;15.22;77.81;100522.28;6132413;23;20452;-73
2021/06/25 04:41:05;;;;;;;3.53;2.97;;;;;;;15.27;77.34;100527.69;6102361;23;20009;-73
2021/06/25 04:43:31;;;;;;;2.10;2.00;;;;;;;15.30;77.76;100527.09;6131135;23;20009;-74
2021/06/25 04:45:59;;;;;;;2.65;2.55;;;;;;;15.32;77.82;100519.38;6132696;23;20315;-73
2021/06/25 04:48:26;;;;;;;3.00;2.80;;;;;;;15.36;78.00;100523.16;6132838;23;20016;-74
2021/06/25 04:50:52;;;;;;;2.38;2.28;;;;;;;15.42;77.49;100523.91;6130358;23;19998;-76
2021/06/25 04:53:17;;;;;;;2.25;1.73;;;;;;;15.47;77.49;100530.19;6131501;23;20372;-78
2021/06/25 04:55:43;;;;;;;2.30;2.10;;;;;;;15.53;77.83;100537.25;6131884;23;20009;-74
2021/06/25 04:58:15;;;;;;;2.15;2.00;;;;;;;15.59;77.61;100528.94;6132463;23;20310;-75
2021/06/25 05:00:43;;;;;;;1.75;1.65;;;;;;;15.61;77.70;100532.19;6130767;23;20096;-75
2021/06/25 05:03:09;;;;;;;1.92;1.83;;;;;;;15.68;77.55;100530.75;6130610;23;20006;-75
2021/06/25 05:05:36;;;;;;;2.08;1.98;;;;;;;15.71;77.43;100534.81;6104702;23;20040;-75
2021/06/25 05:08:02;;;;;;;1.77;1.67;;;;;;;15.76;77.27;100545.78;6125435;23;20016;-75
2021/06/25 05:10:28;;;;;;;1.80;1.70;;;;;;;15.77;77.44;100528.13;6126692;23;20068;-76
2021/06/25 05:12:53;;;;;;;2.33;2.13;;;;;;;15.86;77.11;100534.63;6125759;23;20042;-76
2021/06/25 05:15:20;;;;;;;1.80;1.70;;;;;;;15.88;77.28;100526.88;6126861;23;20006;-77
2021/06/25 05:17:48;;;;;;;2.63;1.90;;;;;;;15.92;77.23;100537.31;6126357;23;20006;-77
2021/06/25 05:20:14;;;;;;;1.45;1.35;;;;;;;15.90;77.24;100528.50;6103464;23;20014;-75
2021/06/25 05:22:39;;;;;;;2.03;1.92;;;;;;;15.95;77.63;100528.44;6128018;23;20010;-75
2021/06/25 05:25:05;;;;;;;1.52;1.42;;;;;;;15.96;77.54;100528.16;6101992;23;20045;-72
2021/06/25 05:27:31;;;;;;;1.95;1.67;;;;;;;15.97;77.49;100521.50;6129563;23;20061;-72
2021/06/25 05:29:56;;;;;;;2.58;1.90;;;;;;;16.00;77.30;100531.09;6129391;23;20433;-75
2021/06/25 05:32:22;;;;;;;3.95;1.90;;;;;;;15.96;77.95;100528.16;6131039;23;20098;-73
2021/06/25 05:34:48;;;;;;;2.47;1.35;;;;;;;15.97;77.91;100540.00;6128953;23;20044;-74
2021/06/25 05:37:14;;;;;;;1.67;1.58;;;;;;;15.94;77.74;100535.88;6129828;23;20020;-73
2021/06/25 05:39:40;;;;;;;1.65;1.55;;;;;;;15.92;78.26;100534.56;6129410;23;20006;-73
2021/06/25 05:42:05;;;;;;;1.55;1.45;;;;;;;15.93;78.03;100533.44;6128964;23;20326;-74
2021/06/25 05:44:31;;;;;;;1.30;1.30;;;;;;;15.93;78.21;100526.00;6131222;23;20085;-73
2021/06/25 05:46:56;;;;;;;1.80;1.70;;;;;;;15.92;77.99;100529.06;6126945;23;20046;-74
2021/06/25 05:49:22;;;;;;;1.90;1.80;;;;;;;15.95;78.15;100531.22;6103813;23;20018;-72
2021/06/25 05:51:49;;;;;;;1.25;1.15;;;;;;;15.95;78.18;100531.22;6103511;23;20010;-71
2021/06/25 05:54:14;;;;;;;2.00;1.90;;;;;;;15.94;78.41;100537.84;6099692;23;20086;-71
2021/06/25 05:56:40;;;;;;;2.38;1.63;;;;;;;15.90;78.72;100539.53;6129186;23;20333;-72
2021/06/25 05:59:05;;;;;;;1.50;1.40;;;;;;;15.92;78.68;100531.81;6078197;23;20088;-72
2021/06/25 06:01:31;;;;;;;1.60;1.50;;;;;;;15.95;78.97;100525.69;6102782;23;20033;-77
2021/06/25 06:03:57;;;;;;;1.20;1.20;;;;;;;15.98;78.73;100530.59;6131397;23;20473;-77
2021/06/25 06:06:24;;;;;;;1.55;1.55;;;;;;;16.01;79.01;100524.47;6107391;23;20052;-76
2021/06/25 06:09:14;;;;;;;1.30;1.20;;;;;;;16.13;78.77;100516.56;6104434;23;20021;-75
2021/06/25 06:11:40;;;;;;;1.38;1.27;;;;;;;16.16;79.11;100521.47;6102506;23;20446;-76
2021/06/25 06:14:07;;;;;;;1.67;1.35;;;;;;;16.12;78.93;100503.91;6133105;23;20010;-74
2021/06/25 06:16:34;;;;;;;2.05;1.40;;;;;;;16.31;79.06;100516.81;6052548;23;20038;-72
2021/06/25 06:19:40;;;;;;;1.27;1.13;;;;;;;16.32;78.79;100512.94;6125451;23;20009;-76
2021/06/25 06:38:09;;;;;;;0.90;0.90;;;;;;;16.58;77.79;100510.53;6210854;23;20032;-74
2021/06/25 06:40:35;;;;;;;;;;;;;;;16.78;77.08;100531.44;6158442;23;20005;-71
2021/06/25 06:43:00;;;;;;;;;;;;;;;16.82;77.56;100532.47;6157447;23;19919;-73
2021/06/25 06:45:26;;;;;;;0.57;0.57;;;;;;;16.73;77.41;100529.59;6183823;23;19908;-73
2021/06/25 06:47:52;;;;;;;0.60;0.60;;;;;;;16.74;77.64;100524.88;6218621;23;20011;-73
2021/06/25 06:50:17;;;;;;;0.73;0.73;;;;;;;16.80;77.57;100537.47;6220443;23;20001;-73
2021/06/25 06:52:46;;;;;;;0.52;0.52;;;;;;;16.84;77.60;100535.72;6219141;23;20392;-74
2021/06/25 06:55:15;;;;;;;0.45;0.38;;;;;;;16.95;77.23;100536.38;6193106;23;20013;-75
2021/06/25 06:57:59;;;;;;;0.30;0.30;;;;;;;17.03;77.03;100532.91;6211829;23;20004;-73
2021/06/25 07:00:39;;;;;;;0.40;0.40;;;;;;;17.13;76.61;100525.53;6195684;23;20008;-73
2021/06/25 07:03:15;;;;;;;3.70;0.47;;;;;;;17.25;76.40;100510.06;6187098;23;20004;-74
2021/06/25 07:06:05;;;;;;;0.30;0.30;;;;;;;17.55;75.97;100527.13;6219418;23;20005;-74
2021/06/25 07:08:59;;;;;;;0.10;0.10;;;;;;;17.63;74.66;100526.38;6222982;23;20008;-74
2021/06/25 07:11:27;;;;;;;3.40;0.30;;;;;;;17.82;73.97;100525.41;6190237;23;20005;-75
2021/06/25 07:13:54;;;;;;;0.35;0.17;;;;;;;17.85;74.24;100512.91;6222275;23;20000;-74
2021/06/25 07:16:23;;;;;;;0.32;0.30;;;;;;;18.04;73.20;100521.06;6171004;23;20311;-76
2021/06/25 07:18:48;;;;;;;0.50;0.20;;;;;;;18.19;73.21;100523.44;6196624;23;20008;-76
2021/06/25 07:21:20;;;;;;;0.22;0.20;;;;;;;18.42;72.74;100526.19;6172407;23;19997;-73
2021/06/25 07:24:18;;;;;;;0.20;0.20;;;;;;;18.70;71.66;100526.00;6223108;23;20382;-72
2021/06/25 07:26:45;;;;;;;0.30;0.22;;;;;;;18.76;69.91;100520.03;6221587;23;20001;-73
2021/06/25 07:29:30;;;;;;;0.10;0.10;;;;;;;19.05;70.53;100527.00;6170463;23;20004;-73
2021/06/25 07:31:59;;;;;;;;;;;;;;;19.49;69.46;100539.03;6188977;23;20036;-72
2021/06/25 07:37:15;;;;;;;0.35;0.35;;;;;;;19.47;67.72;100504.44;6178315;23;20024;-74
2021/06/25 07:50:41;;;;;;;0.20;0.20;;;;;;;20.17;65.52;100544.13;6153250;23;20541;-75
2021/06/25 07:53:11;;;;;;;0.20;0.20;;;;;;;20.24;65.12;100540.88;6160603;23;20044;-76
2021/06/25 07:55:47;;;;;;;0.22;0.22;;;;;;;20.19;63.08;100541.03;6160984;23;20083;-75
2021/06/25 07:58:15;;;;;;;;;;;;;;;20.36;62.13;100549.34;6136619;23;20070;-76
2021/06/25 08:00:41;;;;;;;1.77;0.28;;;;;;;20.21;61.81;100541.53;6161372;23;19932;-75
2021/06/25 08:03:07;;;;;;;0.10;0.10;;;;;;;20.16;61.73;100519.47;6159796;23;20427;-74
2021/06/25 08:05:33;;;;;;;0.10;0.10;;;;;;;20.37;62.11;100539.88;6161500;23;20033;-75
2021/06/25 08:07:59;;;;;;;0.10;0.10;;;;;;;20.61;61.80;100541.28;6162119;23;20005;-74
2021/06/25 08:10:24;;;;;;;0.10;0.10;;;;;;;20.86;62.13;100525.69;6134547;23;20360;-74
2021/06/25 08:12:52;;;;;;;0.10;0.10;;;;;;;21.20;59.96;100523.06;6159887;23;20010;-75
2021/06/25 08:15:18;;;;;;;0.22;0.20;;;;;;;21.57;58.58;100537.28;6162288;23;20028;-75
2021/06/25 08:17:43;;;;;;;0.20;0.20;;;;;;;21.71;58.25;100526.72;6135874;23;20009;-75
2021/06/25 08:20:13;;;;;;;0.15;0.13;;;;;;;21.88;57.23;100519.38;6160772;23;20013;-74
2021/06/25 08:22:38;;;;;;;0.15;0.13;;;;;;;22.04;55.87;100545.41;6162792;23;20012;-74
2021/06/25 08:25:04;;;;;;;0.43;0.20;;;;;;;21.88;54.99;100530.50;6156560;23;20005;-74
2021/06/25 08:27:29;;;;;;;0.15;0.10;;;;;;;21.65;55.95;100539.16;6162083;23;20025;-72
2021/06/25 08:30:00;;;;;;;0.20;0.20;;;;;;;21.68;56.49;100532.94;6162156;23;20001;-74
2021/06/25 08:32:25;;;;;;;2.50;0.10;;;;;;;21.50;56.46;100521.09;6165247;23;20009;-75
2021/06/25 08:34:56;;;;;;;0.17;0.17;;;;;;;21.43;56.71;100532.72;6160285;23;20062;-75
2021/06/25 08:37:22;;;;;;;0.10;0.10;;;;;;;21.38;57.01;100544.06;6128792;23;20005;-74
2021/06/25 08:39:55;;;;;;;0.17;0.17;;;;;;;21.33;57.29;100538.69;6139189;23;20006;-75
2021/06/25 08:42:21;;;;;;;0.50;0.10;;;;;;;21.13;55.26;100522.78;6165032;23;20000;-73
2021/06/25 08:44:46;;;;;;;0.20;0.10;;;;;;;20.99;55.07;100540.50;6165641;23;20002;-74
2021/06/25 08:47:19;;;;;;;6.13;0.40;;;;;;;20.74;54.78;100529.16;6166408;23;20024;-75
2021/06/25 08:49:48;;;;;;;0.10;0.10;;;;;;;20.74;55.92;100534.72;6163981;23;20010;-73
2021/06/25 08:52:15;;;;;;;0.10;0.10;;;;;;;20.87;55.40;100532.06;6164031;23;20001;-75
2021/06/25 08:54:50;;;;;;;0.15;0.15;;;;;;;20.96;54.70;100527.28;6137730;23;20006;-73
2021/06/25 08:57:17;;;;;;;0.77;0.40;;;;;;;21.02;52.81;100531.50;6162899;23;20012;-71
2021/06/25 08:59:47;;;;;;;0.10;0.10;;;;;;;20.96;52.72;100534.81;6136832;23;20024;-73
2021/06/25 09:02:22;;;;;;;0.17;0.17;;;;;;;20.85;53.01;100523.22;6160024;23;20005;-72
2021/06/25 09:04:51;;;;;;;0.03;0.03;;;;;;;20.79;52.73;100508.72;6161050;23;20001;-73
2021/06/25 09:07:16;;;;;;;0.10;0.10;;;;;;;20.62;51.44;100515.13;6086847;23;20005;-73
2021/06/25 09:09:49;;;;;;;0.20;0.10;;;;;;;20.28;52.05;100518.81;6107861;23;20013;-73
2021/06/25 09:12:20;;;;;;;0.20;0.20;;;;;;;20.15;53.82;100532.56;6131159;23;20006;-74
2021/06/25 09:15:03;;;;;;;0.30;0.30;;;;;;;20.24;54.31;100521.44;6158933;23;20001;-73
2021/06/25 09:17:52;;;;;;;0.25;0.20;;;;;;;20.60;53.66;100525.75;6161412;23;20049;-74
2021/06/25 09:20:52;;;;;;;;;;;;;;;;;;;;;
2021/06/25 09:24:03;;;;;;;0.55;0.20;;;;;;;20.96;53.07;100529.25;6155778;23;20057;-79
2021/06/25 09:26:44;;;;;;;;;;;;;;;;;;;;;
2021/06/25 09:29:24;;;;;;;0.52;0.52;;;;;;;20.39;53.06;100495.09;6138364;23;20036;-71
2021/06/25 09:32:03;;;;;;;0.30;0.10;;;;;;;20.55;53.42;100531.50;6156971;23;20080;-70
2021/06/25 09:34:48;;;;;;;0.38;0.20;;;;;;;20.51;52.75;100524.97;6147747;23;20009;-75
2021/06/25 09:37:15;;;;;;;1.00;0.10;;;;;;;20.43;52.10;100512.75;6157187;23;20010;-75
2021/06/25 09:40:02;;;;;;;0.10;0.10;;;;;;;20.63;50.70;100524.28;6160476;23;20012;-74
2021/06/25 09:42:28;;;;;;;3.50;0.10;;;;;;;20.84;49.97;100510.50;6156967;23;19997;-77
2021/06/25 09:44:59;;;;;;;0.10;0.10;;;;;;;21.03;49.07;100508.13;6151552;23;20012;-78
2021/06/25 09:47:41;;;;;;;1.77;0.10;;;;;;;20.86;47.60;100510.97;6163138;23;20021;-76
2021/06/25 09:50:15;;;;;;;1.45;0.10;;;;;;;20.57;49.24;100512.53;6190478;23;20005;-75
2021/06/25 09:52:50;;;;;;;0.00;0.00;;;;;;;20.63;49.79;100516.75;6188920;23;20005;-76
2021/06/25 09:55:17;;;;;;;0.10;0.10;;;;;;;20.57;47.13;100518.91;6181414;23;20325;-77
2021/06/25 10:01:25;;;;;;;0.40;0.20;;;;;;;19.68;49.89;100516.53;6190724;23;20089;-77
2021/06/25 10:03:58;;;;;;;0.20;0.20;;;;;;;19.44;49.38;100527.28;6180091;23;20009;-78
2021/06/25 10:06:34;;;;;;;0.10;0.10;;;;;;;19.24;49.62;100523.94;6193055;23;20012;-77
2021/06/25 10:09:00;;;;;;;0.32;0.20;;;;;;;19.22;51.03;100515.16;6166127;23;20013;-76
2021/06/25 10:11:28;;;;;;;0.40;0.30;;;;;;;19.38;51.17;100517.44;6189227;23;20154;-77
2021/06/25 10:13:55;;;;;;;0.35;0.20;;;;;;;19.50;49.17;100512.09;6189781;23;20016;-76
2021/06/25 10:16:21;;;;;;;0.20;0.20;;;;;;;19.73;49.30;100511.94;6194424;23;20012;-77
2021/06/25 10:18:52;;;;;;;0.20;0.20;;;;;;;20.04;48.23;100509.84;6192622;23;20036;-76
2021/06/25 10:21:23;;;;;;;0.20;0.20;;;;;;;20.43;48.25;100511.91;6196050;23;20001;-76
2021/06/25 10:23:56;;;;;;;0.40;0.35;;;;;;;20.72;46.90;100514.81;6190447;23;20012;-75
2021/06/25 10:26:23;;;;;;;0.20;0.20;;;;;;;20.92;46.28;100515.19;6196319;23;20329;-77
2021/06/25 10:28:52;;;;;;;0.30;0.30;;;;;;;20.70;45.21;100511.53;6192318;23;20401;-77
2021/06/25 10:31:21;;;;;;;0.45;0.20;;;;;;;20.73;46.33;100515.59;6198536;23;20031;-77
2021/06/25 10:33:48;;;;;;;2.58;0.30;;;;;;;21.13;47.49;100511.66;6193756;23;20016;-76
2021/06/25 10:36:17;;;;;;;0.43;0.30;;;;;;;21.37;44.82;100522.97;6169437;23;20447;-76
2021/06/25 10:38:44;;;;;;;0.30;0.30;;;;;;;21.27;44.17;100517.78;6187140;23;20088;-78
2021/06/25 10:41:12;;;;;;;0.40;0.40;;;;;;;20.95;44.64;100517.31;6193053;23;20009;-76
2021/06/25 10:43:54;;;;;;;0.40;0.22;;;;;;;20.92;45.62;100506.84;6189037;23;20428;-76
2021/06/25 10:46:26;;;;;;;2.72;0.55;;;;;;;21.27;46.33;100501.09;6194346;23;20001;-76
2021/06/25 10:48:57;;;;;;;0.30;0.30;;;;;;;21.56;44.29;100502.25;6193651;23;20093;-77
2021/06/25 10:51:34;;;;;;;1.30;0.30;;;;;;;21.71;44.24;100509.19;6182378;23;20013;-77
2021/06/25 10:54:22;;;;;;;3.10;0.28;;;;;;;21.81;44.31;100513.53;6166662;23;20017;-78
2021/06/25 10:56:50;;;;;;;1.00;0.30;;;;;;;21.76;43.60;100504.22;6195538;23;20008;-79
2021/06/25 10:59:25;;;;;;;0.30;0.20;;;;;;;22.11;44.14;100517.03;6193370;23;20004;-79
2021/06/25 11:01:58;;;;;;;0.30;0.30;;;;;;;22.76;41.58;100508.97;6197818;23;20068;-78
2021/06/25 11:04:40;;;;;;;1.65;0.60;;;;;;;23.62;41.63;100515.69;6195511;23;20001;-77
2021/06/25 11:07:07;;;;;;;1.50;0.60;;;;;;;24.06;38.90;100521.38;6193829;23;20012;-77
2021/06/25 11:09:57;;;;;;;0.73;0.50;;;;;;;24.10;38.16;100515.91;6192887;23;20123;-78
2021/06/25 11:12:32;;;;;;;1.58;0.30;;;;;;;24.37;37.60;100517.03;6162798;23;20013;-81
2021/06/25 11:15:03;;;;;;;1.02;0.40;;;;;;;25.20;38.80;100514.38;6197995;23;20005;-77
2021/06/25 11:17:44;;;;;;;1.23;0.35;;;;;;;26.25;37.19;100506.22;6191374;23;20416;-80
2021/06/25 11:20:25;;;;;;;2.22;0.50;;;;;;;27.11;34.91;100500.53;6195202;23;20009;-77
2021/06/25 11:23:12;;;;;;;0.80;0.50;;;;;;;27.98;33.02;100503.38;6191011;23;20072;-78
2021/06/25 11:25:37;;;;;;;0.30;0.30;;;;;;;28.71;31.63;100502.94;6192900;23;20050;-80
2021/06/25 11:28:36;;;;;;;0.28;0.28;;;;;;;28.42;29.48;100499.03;6194017;23;20005;-79
2021/06/25 11:31:17;;;;;;;0.63;0.63;;;;;;;27.51;31.13;100493.50;6163904;23;20448;-79
2021/06/25 11:34:07;;;;;;;0.43;0.38;;;;;;;27.68;31.53;100492.13;6192620;23;20009;-79
2021/06/25 11:36:58;;;;;;;1.13;0.60;;;;;;;28.72;30.82;100495.28;6188974;23;20009;-78
2021/06/25 11:40:21;;;;;;;;;;;;;;;;;;;;;
2021/06/25 11:43:32;;;;;;;0.45;0.45;;;;;;;29.28;32.05;100513.03;6068661;23;20032;-75
2021/06/25 11:46:43;;;;;;;;;;;;;;;;;;;;;
2021/06/25 11:49:09;;;;;;;2.28;1.25;;;;;;;27.29;30.58;100496.00;6073722;23;20053;-78
2021/06/25 11:51:44;;;;;;;3.28;0.77;;;;;;;26.77;31.95;100475.94;6073093;23;20011;-80
2021/06/25 11:54:14;;;;;;;0.80;0.70;;;;;;;27.89;30.85;100488.78;6075186;23;20014;-78
2021/06/25 11:56:46;;;;;;;0.93;0.68;;;;;;;28.99;29.00;100490.28;6072149;23;20013;-77
2021/06/25 11:59:15;;;;;;;0.70;0.50;;;;;;;30.07;27.75;100481.63;6076209;23;20011;-78
2021/06/25 12:01:53;;;;;;;0.80;0.80;;;;;;;31.34;26.86;100488.97;6187006;23;20016;-77
2021/06/25 12:04:43;;;;;;;1.27;0.73;;;;;;;32.24;25.45;100480.09;6183391;23;20036;-77
2021/06/25 12:07:11;;;;;;;0.93;0.52;;;;;;;33.05;24.75;100490.41;6184685;23;20017;-78
2021/06/25 12:09:52;;;;;;;0.52;0.40;;;;;;;32.85;23.89;100484.53;6185425;23;20016;-78
2021/06/25 12:12:20;;;;;;;0.63;0.47;;;;;;;33.02;23.65;100475.06;6185440;23;20021;-77
2021/06/25 12:14:52;;;;;;;2.20;0.63;;;;;;;32.24;22.36;100468.00;6190127;23;20428;-77
2021/06/25 12:17:18;;;;;;;2.20;0.80;;;;;;;31.45;24.32;100486.09;6193180;23;20421;-76
2021/06/25 12:19:59;;;;;;;2.00;1.02;;;;;;;31.96;23.86;100478.25;6193494;23;20029;-78